createdAt,value
2018-06-08T00:02:00.917Z,18.70
2018-06-08T00:04:28.962Z,18.60
2018-06-08T00:06:57.050Z,18.60
2018-06-08T00:09:25.110Z,18.60
2018-06-08T00:11:53.218Z,18.60
2018-06-08T00:14:21.285Z,18.60
2018-06-08T00:16:49.379Z,18.50
2018-06-08T00:19:17.406Z,18.50
2018-06-08T00:21:45.453Z,18.40
2018-06-08T00:24:13.534Z,18.30
2018-06-08T00:26:41.641Z,18.30
2018-06-08T00:29:09.692Z,18.30
2018-06-08T00:34:05.560Z,18.20
2018-06-08T00:36:33.721Z,18.10
2018-06-08T00:39:01.800Z,18.10
2018-06-08T00:41:29.867Z,18.10
2018-06-08T00:43:58.004Z,18.10
2018-06-08T00:46:26.050Z,18.00
2018-06-08T00:48:54.069Z,18.00
2018-06-08T00:51:22.156Z,18.00
2018-06-08T00:53:50.214Z,17.90
2018-06-08T00:56:24.020Z,17.90
2018-06-08T00:58:52.108Z,17.80
2018-06-08T01:01:20.187Z,17.80
2018-06-08T01:03:48.254Z,17.80
2018-06-08T01:06:16.325Z,17.70
2018-06-08T01:08:44.422Z,17.70
2018-06-08T01:11:12.457Z,17.70
2018-06-08T01:13:40.521Z,17.60
2018-06-08T01:16:08.616Z,17.60
2018-06-08T01:18:36.622Z,17.60
2018-06-08T01:21:04.758Z,17.60
2018-06-08T01:23:32.806Z,17.60
2018-06-08T01:26:00.905Z,17.50
2018-06-08T01:28:28.962Z,17.50
2018-06-08T01:30:57.050Z,17.50
2018-06-08T01:33:25.117Z,17.40
2018-06-08T01:35:53.162Z,17.40
2018-06-08T01:38:21.265Z,17.50
2018-06-08T01:40:49.346Z,17.40
2018-06-08T01:43:17.409Z,17.40
2018-06-08T01:45:45.479Z,17.40
2018-06-08T01:48:13.583Z,17.40
2018-06-08T01:50:41.646Z,17.30
2018-06-08T01:53:09.678Z,17.30
2018-06-08T01:55:37.786Z,17.30
2018-06-08T01:58:05.864Z,17.30
2018-06-08T02:00:33.910Z,17.20
2018-06-08T02:03:02.004Z,17.20
2018-06-08T02:05:30.057Z,17.20
2018-06-08T02:07:58.190Z,17.20
2018-06-08T02:10:26.203Z,17.20
2018-06-08T02:12:54.275Z,17.10
2018-06-08T02:15:22.342Z,17.10
2018-06-08T02:17:50.394Z,17.10
2018-06-08T02:20:18.439Z,17.10
2018-06-08T02:22:46.554Z,17.10
2018-06-08T02:25:14.625Z,17.00
2018-06-08T02:27:42.711Z,17.00
2018-06-08T02:30:10.752Z,17.00
2018-06-08T02:32:38.919Z,17.00
2018-06-08T02:35:06.987Z,16.90
2018-06-08T02:37:35.042Z,16.90
2018-06-08T02:40:03.099Z,16.90
2018-06-08T02:42:31.201Z,16.90
2018-06-08T02:44:59.274Z,16.90
2018-06-08T02:47:27.366Z,16.90
2018-06-08T02:49:55.390Z,16.90
2018-06-08T02:52:23.438Z,16.90
2018-06-08T02:54:51.475Z,16.80
2018-06-08T02:57:19.534Z,16.90
2018-06-08T02:59:47.606Z,16.90
2018-06-08T03:02:15.648Z,16.90
2018-06-08T03:04:43.694Z,16.90
2018-06-08T03:07:11.804Z,16.80
2018-06-08T03:09:39.906Z,16.90
2018-06-08T03:12:08.031Z,16.90
2018-06-08T03:14:36.054Z,16.90
2018-06-08T03:17:04.165Z,16.90
2018-06-08T03:19:32.296Z,16.90
2018-06-08T03:22:00.402Z,16.90
2018-06-08T03:24:28.524Z,16.90
2018-06-08T03:26:56.517Z,16.90
2018-06-08T03:29:24.668Z,16.90
2018-06-08T03:31:52.733Z,17.00
2018-06-08T03:34:20.930Z,17.00
2018-06-08T03:36:48.906Z,17.00
2018-06-08T03:39:17.951Z,17.10
2018-06-08T03:41:46.021Z,17.10
2018-06-08T03:44:14.086Z,17.10
2018-06-08T03:46:42.218Z,17.20
2018-06-08T03:49:10.372Z,17.20
2018-06-08T03:51:38.488Z,17.20
2018-06-08T03:54:06.542Z,17.20
2018-06-08T03:56:34.593Z,17.20
2018-06-08T03:59:02.676Z,17.20
2018-06-08T04:01:30.788Z,17.20
2018-06-08T04:03:58.918Z,17.30
2018-06-08T04:06:26.952Z,17.30
2018-06-08T04:08:55.017Z,17.30
2018-06-08T04:11:23.020Z,17.40
2018-06-08T04:13:51.056Z,17.40
2018-06-08T04:16:19.141Z,17.50
2018-06-08T04:18:47.185Z,17.50
2018-06-08T04:21:15.198Z,17.50
2018-06-08T04:23:43.253Z,17.50
2018-06-08T04:26:11.332Z,17.60
2018-06-08T04:28:39.403Z,17.60
2018-06-08T04:31:07.456Z,17.70
2018-06-08T04:33:35.538Z,17.70
2018-06-08T04:36:03.816Z,17.80
2018-06-08T04:38:31.996Z,17.90
2018-06-08T04:41:00.069Z,17.90
2018-06-08T04:43:28.140Z,18.00
2018-06-08T04:45:56.180Z,18.00
2018-06-08T04:48:24.250Z,18.10
2018-06-08T04:50:52.386Z,18.20
2018-06-08T04:53:20.422Z,18.30
2018-06-08T04:55:48.455Z,18.30
2018-06-08T04:58:16.476Z,18.30
2018-06-08T05:00:44.521Z,18.40
2018-06-08T05:03:12.614Z,18.40
2018-06-08T05:05:40.633Z,18.50
2018-06-08T05:08:08.654Z,18.50
2018-06-08T05:10:36.680Z,18.60
2018-06-08T05:13:04.702Z,18.60
2018-06-08T05:15:32.774Z,18.70
2018-06-08T05:18:00.784Z,18.80
2018-06-08T05:20:28.949Z,18.80
2018-06-08T05:22:56.936Z,18.80
2018-06-08T05:25:24.966Z,18.90
2018-06-08T05:27:53.038Z,19.00
2018-06-08T05:30:23.186Z,19.00
2018-06-08T05:32:51.317Z,19.10
2018-06-08T05:35:19.349Z,19.20
2018-06-08T05:37:47.474Z,19.20
2018-06-08T05:40:15.546Z,19.30
2018-06-08T05:42:43.588Z,19.40
2018-06-08T05:45:11.700Z,19.50
2018-06-08T05:47:39.710Z,19.60
2018-06-08T05:50:07.754Z,19.70
2018-06-08T05:52:35.826Z,19.80
2018-06-08T05:55:03.878Z,19.90
2018-06-08T05:57:31.893Z,20.00
2018-06-08T06:00:00.008Z,20.10
2018-06-08T06:02:28.009Z,20.20
2018-06-08T06:04:56.061Z,20.30
2018-06-08T06:07:24.124Z,20.40
2018-06-08T06:09:52.196Z,20.50
2018-06-08T06:12:20.218Z,20.60
2018-06-08T06:14:48.362Z,20.80
2018-06-08T06:17:16.383Z,20.90
2018-06-08T06:19:44.413Z,21.00
2018-06-08T06:22:12.445Z,21.20
2018-06-08T06:24:41.538Z,21.30
2018-06-08T06:27:09.566Z,21.40
2018-06-08T06:29:37.616Z,21.50
2018-06-08T06:32:05.676Z,21.60
2018-06-08T06:34:33.747Z,21.70
2018-06-08T06:37:01.803Z,21.70
2018-06-08T06:39:29.855Z,21.80
2018-06-08T06:41:57.895Z,21.90
2018-06-08T06:44:25.933Z,21.90
2018-06-08T06:46:54.039Z,21.90
2018-06-08T06:49:22.137Z,22.10
2018-06-08T06:51:50.265Z,22.10
2018-06-08T06:54:18.333Z,22.20
2018-06-08T06:56:46.398Z,22.20
2018-06-08T06:59:14.485Z,22.40
2018-06-08T07:01:42.572Z,22.60
2018-06-08T07:04:10.763Z,22.80
2018-06-08T07:06:38.799Z,23.00
2018-06-08T07:09:07.692Z,23.10
2018-06-08T07:11:35.794Z,23.20
2018-06-08T07:14:03.972Z,23.40
2018-06-08T07:16:32.058Z,23.50
2018-06-08T07:19:00.077Z,23.70
2018-06-08T07:21:28.124Z,23.80
2018-06-08T07:23:56.151Z,24.00
2018-06-08T07:26:24.195Z,24.10
2018-06-08T07:28:52.217Z,24.20
2018-06-08T07:31:20.342Z,24.40
2018-06-08T07:33:48.381Z,24.50
2018-06-08T07:36:16.485Z,24.60
2018-06-08T07:38:44.580Z,24.80
2018-06-08T07:41:12.683Z,24.90
2018-06-08T07:43:41.428Z,25.00
2018-06-08T07:46:09.471Z,25.10
2018-06-08T07:48:37.684Z,25.20
2018-06-08T07:51:06.069Z,25.40
2018-06-08T07:53:34.219Z,25.50
2018-06-08T07:56:02.289Z,25.60
2018-06-08T07:58:30.357Z,25.80
2018-06-08T08:00:58.581Z,25.80
2018-06-08T08:03:26.641Z,25.90
2018-06-08T08:05:54.781Z,26.00
2018-06-08T08:08:22.837Z,26.10
2018-06-08T08:10:50.927Z,26.00
2018-06-08T08:13:18.932Z,26.00
2018-06-08T08:15:46.976Z,26.20
2018-06-08T08:18:14.993Z,26.30
2018-06-08T08:23:10.789Z,26.50
2018-06-08T08:25:38.834Z,26.60
2018-06-08T08:28:06.839Z,26.70
2018-06-08T08:30:34.937Z,26.70
2018-06-08T08:33:02.961Z,26.80
2018-06-08T08:35:30.994Z,26.90
2018-06-08T08:37:59.000Z,27.00
2018-06-08T08:40:27.093Z,27.20
2018-06-08T08:42:55.132Z,27.30
2018-06-08T08:45:23.175Z,27.40
2018-06-08T08:47:51.207Z,27.40
2018-06-08T08:50:19.282Z,27.40
2018-06-08T08:52:47.337Z,27.30
2018-06-08T08:55:15.402Z,27.40
2018-06-08T08:57:43.480Z,27.60
2018-06-08T09:00:11.684Z,27.60
2018-06-08T09:02:39.749Z,27.60
2018-06-08T09:05:07.765Z,27.60
2018-06-08T09:07:35.825Z,27.60
2018-06-08T09:10:04.204Z,27.70
2018-06-08T09:12:32.636Z,27.80
2018-06-08T09:15:00.677Z,27.80
2018-06-08T09:17:28.714Z,28.00
2018-06-08T09:19:56.843Z,28.00
2018-06-08T09:22:24.918Z,28.00
2018-06-08T09:24:52.954Z,28.10
2018-06-08T09:27:21.099Z,28.20
2018-06-08T09:29:49.115Z,28.20
2018-06-08T09:32:17.198Z,28.20
2018-06-08T09:34:45.272Z,28.10
2018-06-08T09:37:13.354Z,28.20
2018-06-08T09:39:41.443Z,28.20
2018-06-08T09:42:09.539Z,28.10
2018-06-08T09:44:37.580Z,28.10
2018-06-08T09:47:05.644Z,28.10
2018-06-08T09:49:33.693Z,28.20
2018-06-08T09:52:01.807Z,28.30
2018-06-08T09:54:29.829Z,28.30
2018-06-08T09:56:57.872Z,28.40
2018-06-08T09:59:25.908Z,28.40
2018-06-08T10:01:53.979Z,28.50
2018-06-08T10:04:22.055Z,28.60
2018-06-08T10:06:50.126Z,28.70
2018-06-08T10:09:18.150Z,28.80
2018-06-08T10:11:46.259Z,28.80
2018-06-08T10:14:14.275Z,28.80
2018-06-08T10:16:42.544Z,28.70
2018-06-08T10:19:10.449Z,28.60
2018-06-08T10:21:38.500Z,28.70
2018-06-08T10:24:06.538Z,28.80
2018-06-08T10:26:34.597Z,28.80
2018-06-08T10:29:02.617Z,28.90
2018-06-08T10:31:30.662Z,29.00
2018-06-08T10:33:58.721Z,29.00
2018-06-08T10:36:26.762Z,29.10
2018-06-08T10:41:22.550Z,29.30
2018-06-08T10:43:50.688Z,29.30
2018-06-08T10:46:18.774Z,29.40
2018-06-08T10:48:46.814Z,29.50
2018-06-08T10:51:14.849Z,29.40
2018-06-08T10:53:42.990Z,29.50
2018-06-08T10:56:11.032Z,29.40
2018-06-08T10:58:39.079Z,29.50
2018-06-08T11:03:34.888Z,29.40
2018-06-08T11:06:02.897Z,29.40
2018-06-08T11:08:30.920Z,29.60
2018-06-08T11:10:58.971Z,29.70
2018-06-08T11:13:27.092Z,29.70
2018-06-08T11:15:55.109Z,29.70
2018-06-08T11:18:23.164Z,29.80
2018-06-08T11:20:51.195Z,29.90
2018-06-08T11:23:19.267Z,30.00
2018-06-08T11:25:47.294Z,30.00
2018-06-08T11:28:15.382Z,30.20
2018-06-08T11:30:43.453Z,30.30
2018-06-08T11:33:11.526Z,30.30
2018-06-08T11:35:39.538Z,30.30
2018-06-08T11:38:07.590Z,30.30
2018-06-08T11:40:35.637Z,30.10
2018-06-08T11:43:03.709Z,30.10
2018-06-08T11:45:31.783Z,30.30
2018-06-08T11:47:59.871Z,30.30
2018-06-08T11:50:28.041Z,30.30
2018-06-08T11:52:56.114Z,30.20
2018-06-08T11:55:24.189Z,30.30
2018-06-08T11:57:52.282Z,30.40
2018-06-08T12:00:20.334Z,30.60
2018-06-08T12:02:48.357Z,30.40
2018-06-08T12:05:16.370Z,30.60
2018-06-08T12:07:44.441Z,31.60
2018-06-08T12:10:12.508Z,33.60
2018-06-08T12:12:40.598Z,36.60
2018-06-08T12:15:08.628Z,37.90
2018-06-08T12:17:36.644Z,38.70
2018-06-08T12:20:04.701Z,40.00
2018-06-08T12:22:32.747Z,42.40
2018-06-08T12:25:00.854Z,43.50
2018-06-08T12:27:28.946Z,44.60
2018-06-08T12:29:56.963Z,46.50
2018-06-08T12:32:24.973Z,46.00
2018-06-08T12:34:53.031Z,45.10
2018-06-08T12:37:21.052Z,46.50
2018-06-08T12:39:49.120Z,47.10
2018-06-08T12:42:17.206Z,46.50
2018-06-08T12:44:45.244Z,46.60
2018-06-08T12:47:13.273Z,47.00
2018-06-08T12:49:41.346Z,47.70
2018-06-08T12:52:09.378Z,47.40
2018-06-08T12:57:05.201Z,44.70
2018-06-08T12:59:33.245Z,45.70
2018-06-08T13:02:01.288Z,44.50
2018-06-08T13:04:29.519Z,44.60
2018-06-08T13:06:57.530Z,43.90
2018-06-08T13:09:25.586Z,45.40
2018-06-08T13:11:53.645Z,45.30
2018-06-08T13:14:21.782Z,45.40
2018-06-08T13:16:49.805Z,46.70
2018-06-08T13:21:45.556Z,45.90
2018-06-08T13:24:13.657Z,44.30
2018-06-08T13:26:41.725Z,44.20
2018-06-08T13:29:09.856Z,44.50
2018-06-08T13:31:37.923Z,45.30
2018-06-08T13:34:05.982Z,45.30
2018-06-08T13:36:34.016Z,45.30
2018-06-08T13:39:02.061Z,45.00
2018-06-08T13:41:30.070Z,45.70
2018-06-08T13:43:58.472Z,43.40
2018-06-08T13:46:32.240Z,43.70
2018-06-08T13:49:00.327Z,44.40
2018-06-08T13:51:28.383Z,42.70
2018-06-08T13:53:56.442Z,43.70
2018-06-08T13:56:24.518Z,43.80
2018-06-08T13:58:52.621Z,43.80
2018-06-08T14:01:20.645Z,43.30
2018-06-08T14:03:48.785Z,43.50
2018-06-08T14:06:16.797Z,42.80
2018-06-08T14:08:44.834Z,41.80
2018-06-08T14:11:12.981Z,41.50
2018-06-08T14:13:41.074Z,40.90
2018-06-08T14:16:09.149Z,41.40
2018-06-08T14:18:37.154Z,41.80
2018-06-08T14:21:05.273Z,41.60
2018-06-08T14:23:33.306Z,41.60
2018-06-08T14:26:01.354Z,42.50
2018-06-08T14:28:29.385Z,42.90
2018-06-08T14:30:57.432Z,43.00
2018-06-08T14:33:25.458Z,43.20
2018-06-08T14:35:53.498Z,43.30
2018-06-08T14:38:21.642Z,43.80
2018-06-08T14:40:49.645Z,43.30
2018-06-08T14:43:17.715Z,43.60
2018-06-08T14:45:45.753Z,43.60
2018-06-08T14:48:13.860Z,43.30
2018-06-08T14:50:41.962Z,41.90
2018-06-08T14:53:09.990Z,42.50
2018-06-08T14:55:38.087Z,42.60
2018-06-08T14:58:06.108Z,42.70
2018-06-08T15:00:34.224Z,42.90
2018-06-08T15:03:02.258Z,43.20
2018-06-08T15:05:30.336Z,43.00
2018-06-08T15:07:58.438Z,43.00
2018-06-08T15:10:26.485Z,42.90
2018-06-08T15:12:54.509Z,41.90
2018-06-08T15:15:22.553Z,42.50
2018-06-08T15:17:50.585Z,42.10
2018-06-08T15:20:18.638Z,42.50
2018-06-08T15:22:46.678Z,42.40
2018-06-08T15:25:14.713Z,42.70
2018-06-08T15:27:42.738Z,41.70
2018-06-08T15:30:10.789Z,40.70
2018-06-08T15:32:38.816Z,41.20
2018-06-08T15:35:06.850Z,41.00
2018-06-08T15:37:34.909Z,40.60
2018-06-08T15:40:02.989Z,40.20
2018-06-08T15:42:31.021Z,39.30
2018-06-08T15:44:59.065Z,39.80
2018-06-08T15:47:27.213Z,39.70
2018-06-08T15:49:55.264Z,39.10
2018-06-08T15:52:23.359Z,39.40
2018-06-08T15:54:51.359Z,39.60
2018-06-08T15:57:19.465Z,39.90
2018-06-08T15:59:47.512Z,40.70
2018-06-08T16:02:16.947Z,40.90
2018-06-08T16:04:44.985Z,40.00
2018-06-08T16:07:13.027Z,40.20
2018-06-08T16:09:41.078Z,40.80
2018-06-08T16:12:09.117Z,40.90
2018-06-08T16:14:37.241Z,40.20
2018-06-08T16:17:05.237Z,40.70
2018-06-08T16:19:33.354Z,41.00
2018-06-08T16:22:01.410Z,40.90
2018-06-08T16:24:29.418Z,40.50
2018-06-08T16:26:57.456Z,40.30
2018-06-08T16:29:25.502Z,39.70
2018-06-08T16:34:21.530Z,39.20
2018-06-08T16:36:49.630Z,39.80
2018-06-08T16:39:17.677Z,39.40
2018-06-08T16:41:45.755Z,38.90
2018-06-08T16:46:41.610Z,38.70
2018-06-08T16:51:37.365Z,39.00
2018-06-08T16:54:05.508Z,38.90
2018-06-08T16:56:33.582Z,38.60
2018-06-08T16:59:01.657Z,38.50
2018-06-08T17:03:57.465Z,38.50
2018-06-08T17:06:25.558Z,38.60
2018-06-08T17:08:53.584Z,38.10
2018-06-08T17:11:21.636Z,37.90
2018-06-08T17:13:49.715Z,37.70
2018-06-08T17:16:17.792Z,37.40
2018-06-08T17:18:45.818Z,37.50
2018-06-08T17:21:13.912Z,37.60
2018-06-08T17:26:10.422Z,37.40
2018-06-08T17:28:38.470Z,36.90
2018-06-08T17:31:06.810Z,36.50
2018-06-08T17:36:02.658Z,35.10
2018-06-08T17:38:30.718Z,35.20
2018-06-08T17:40:58.751Z,34.60
2018-06-08T17:43:26.796Z,34.30
2018-06-08T17:45:54.815Z,34.50
2018-06-08T17:48:22.863Z,34.30
2018-06-08T17:50:50.902Z,34.20
2018-06-08T17:53:18.936Z,34.30
2018-06-08T17:55:47.068Z,34.50
2018-06-08T17:58:15.114Z,34.50
2018-06-08T18:00:43.131Z,34.30
2018-06-08T18:03:11.176Z,34.50
2018-06-08T18:05:39.236Z,34.30
2018-06-08T18:08:07.299Z,34.10
2018-06-08T18:10:35.351Z,34.10
2018-06-08T18:13:03.466Z,33.90
2018-06-08T18:15:31.495Z,33.90
2018-06-08T18:17:59.592Z,34.00
2018-06-08T18:20:27.610Z,33.90
2018-06-08T18:22:55.670Z,33.70
2018-06-08T18:25:23.694Z,33.70
2018-06-08T18:27:51.765Z,33.40
2018-06-08T18:30:19.886Z,32.60
2018-06-08T18:32:47.939Z,32.20
2018-06-08T18:35:16.057Z,31.80
2018-06-08T18:37:44.103Z,31.30
2018-06-08T18:40:12.167Z,31.00
2018-06-08T18:42:40.240Z,30.60
2018-06-08T18:45:08.292Z,30.30
2018-06-08T18:47:36.369Z,30.00
2018-06-08T18:50:04.435Z,29.70
2018-06-08T18:52:32.509Z,29.40
2018-06-08T18:55:00.521Z,29.20
2018-06-08T18:57:28.565Z,29.00
2018-06-08T18:59:56.605Z,28.90
2018-06-08T19:02:24.656Z,28.60
2018-06-08T19:04:52.805Z,28.50
2018-06-08T19:07:20.963Z,28.30
2018-06-08T19:09:48.968Z,28.10
2018-06-08T19:12:17.019Z,27.90
2018-06-08T19:14:45.162Z,27.70
2018-06-08T19:17:13.201Z,27.50
2018-06-08T19:19:41.507Z,27.30
2018-06-08T19:22:09.629Z,27.20
2018-06-08T19:24:37.766Z,27.10
2018-06-08T19:27:05.834Z,27.10
2018-06-08T19:29:33.975Z,27.00
2018-06-08T19:32:02.210Z,26.80
2018-06-08T19:34:30.320Z,26.70
2018-06-08T19:36:58.370Z,26.50
2018-06-08T19:39:26.499Z,26.40
2018-06-08T19:41:54.540Z,26.20
2018-06-08T19:44:22.655Z,26.10
2018-06-08T19:46:51.522Z,25.90
2018-06-08T19:49:19.637Z,25.70
2018-06-08T19:51:47.630Z,25.60
2018-06-08T19:54:15.661Z,25.50
2018-06-08T19:56:43.689Z,25.40
2018-06-08T19:59:11.794Z,25.20
2018-06-08T20:01:39.858Z,25.20
2018-06-08T20:04:07.908Z,25.00
2018-06-08T20:06:36.547Z,25.00
2018-06-08T20:09:05.978Z,24.90
2018-06-08T20:11:33.996Z,24.80
2018-06-08T20:14:02.171Z,24.70
2018-06-08T20:16:30.201Z,24.70
2018-06-08T20:18:58.239Z,24.60
2018-06-08T20:21:26.258Z,24.50
2018-06-08T20:23:54.363Z,24.40
2018-06-08T20:26:22.399Z,24.40
2018-06-08T20:28:50.511Z,24.30
2018-06-08T20:31:19.231Z,24.20
2018-06-08T20:33:47.325Z,24.20
2018-06-08T20:36:15.545Z,24.20
2018-06-08T20:38:43.649Z,24.20
2018-06-08T20:41:11.789Z,24.10
2018-06-08T20:43:39.816Z,24.10
2018-06-08T20:46:07.940Z,24.10
2018-06-08T20:48:35.946Z,24.00
2018-06-08T20:51:03.986Z,24.00
2018-06-08T20:53:32.089Z,23.90
2018-06-08T20:56:00.178Z,23.80
2018-06-08T20:58:29.143Z,23.80
2018-06-08T21:00:57.351Z,23.70
2018-06-08T21:03:25.376Z,23.70
2018-06-08T21:05:53.572Z,23.60
2018-06-08T21:08:21.684Z,23.60
2018-06-08T21:10:49.779Z,23.60
2018-06-08T21:13:17.838Z,23.50
2018-06-08T21:15:46.060Z,23.50
2018-06-08T21:18:14.138Z,23.50
2018-06-08T21:20:42.249Z,23.50
2018-06-08T21:23:10.284Z,23.50
2018-06-08T21:25:38.331Z,23.40
2018-06-08T21:28:06.424Z,23.40
2018-06-08T21:30:34.566Z,23.40
2018-06-08T21:33:02.569Z,23.30
2018-06-08T21:35:30.609Z,23.30
2018-06-08T21:37:58.652Z,23.20
2018-06-08T21:42:54.563Z,23.20
2018-06-08T21:45:22.723Z,23.10
2018-06-08T21:47:50.760Z,23.10
2018-06-08T21:50:18.833Z,23.00
2018-06-08T21:52:46.888Z,23.10
2018-06-08T21:55:14.946Z,23.00
2018-06-08T21:57:43.182Z,22.90
2018-06-08T22:00:11.236Z,22.90
2018-06-08T22:02:39.288Z,22.80
2018-06-08T22:05:07.412Z,22.80
2018-06-08T22:07:35.487Z,22.80
2018-06-08T22:10:03.501Z,22.70
2018-06-08T22:12:31.788Z,22.70
2018-06-08T22:14:59.797Z,22.70
2018-06-08T22:17:27.851Z,22.60
2018-06-08T22:19:55.876Z,22.60
2018-06-08T22:22:23.990Z,22.50
2018-06-08T22:24:51.993Z,22.50
2018-06-08T22:27:20.053Z,22.40
2018-06-08T22:29:48.069Z,22.40
2018-06-08T22:32:16.179Z,22.40
2018-06-08T22:34:44.245Z,22.30
2018-06-08T22:37:12.323Z,22.20
2018-06-08T22:39:40.340Z,22.20
2018-06-08T22:42:08.382Z,22.20
2018-06-08T22:44:36.431Z,22.20
2018-06-08T22:47:04.489Z,22.10
2018-06-08T22:49:32.573Z,22.10
2018-06-08T22:52:00.654Z,22.10
2018-06-08T22:54:28.724Z,22.10
2018-06-08T22:56:56.894Z,22.10
2018-06-08T22:59:24.967Z,22.10
2018-06-08T23:01:53.042Z,22.00
2018-06-08T23:04:21.140Z,22.00
2018-06-08T23:06:49.183Z,22.00
2018-06-08T23:09:17.231Z,21.90
2018-06-08T23:11:45.289Z,21.90
2018-06-08T23:14:13.309Z,21.90
2018-06-08T23:16:41.375Z,21.80
2018-06-08T23:19:09.450Z,21.70
2018-06-08T23:21:37.508Z,21.70
2018-06-08T23:24:05.595Z,21.70
2018-06-08T23:26:33.691Z,21.60
2018-06-08T23:29:01.738Z,21.60
2018-06-08T23:31:29.763Z,21.50
2018-06-08T23:33:57.902Z,21.50
2018-06-08T23:36:25.942Z,21.50
2018-06-08T23:38:53.997Z,21.40
2018-06-08T23:41:22.056Z,21.40
2018-06-08T23:43:50.201Z,21.40
2018-06-08T23:46:18.238Z,21.30
2018-06-08T23:48:46.420Z,21.30
2018-06-08T23:51:14.438Z,21.30
2018-06-08T23:53:42.502Z,21.30
2018-06-08T23:56:10.530Z,21.30
2018-06-08T23:58:38.566Z,21.20
